Santa Maria, California
Current Conditions -  °F | °C
As of 7:51 AM on Sunday 21 Dec 2014 (Local Time) from KSMX Reporting Station
Broken Clouds Broken Clouds  
Wind Chill: 57°   Ceiling: 20000
Heat Index: 57°   Visibility: 10mi
Dew Point: 50°   Wind: 12mph
Humidity: 77%   Direction: 310°NW
Pressure: 30.24"   Gusts: NA
Location:  34.95°N, 120.43°W
Report Text: KSMX 211551Z 31010KT 10SM BKN200 14/10 A3024 RMK AO2 SLP244 T01390100 $
Loading
Personal Weather Stations






























Interactive Weather Map New forecast layout! Learn more

10-Day Weather Forecast

Advertisements
Track Severe Weather on mobile